createdAt,value
2022-12-27T00:01:29.573Z,13.70
2022-12-27T00:03:58.165Z,14.47
2022-12-27T00:06:27.621Z,12.80
2022-12-27T00:08:56.519Z,13.67
2022-12-27T00:11:25.884Z,12.83
2022-12-27T00:13:54.721Z,13.80
2022-12-27T00:16:24.582Z,13.53
2022-12-27T00:18:53.469Z,14.53
2022-12-27T00:21:23.110Z,13.07
2022-12-27T00:23:52.942Z,15.07
2022-12-27T00:26:22.514Z,14.60
2022-12-27T00:28:51.243Z,14.60
2022-12-27T00:31:21.000Z,15.53
2022-12-27T00:33:52.239Z,14.40
2022-12-27T00:36:21.836Z,14.00
2022-12-27T00:38:50.852Z,13.60
2022-12-27T00:41:19.403Z,14.50
2022-12-27T00:43:48.310Z,14.20
2022-12-27T00:46:16.866Z,13.57
2022-12-27T00:48:45.310Z,12.73
2022-12-27T00:51:16.027Z,12.90
2022-12-27T00:53:45.104Z,12.90
2022-12-27T00:56:14.441Z,12.67
2022-12-27T00:58:42.907Z,12.73
2022-12-27T01:01:12.374Z,12.03
2022-12-27T01:03:41.524Z,12.77
2022-12-27T01:06:10.752Z,11.93
2022-12-27T01:08:40.589Z,12.77
2022-12-27T01:11:09.592Z,13.97
2022-12-27T01:13:38.563Z,13.23
2022-12-27T01:16:10.498Z,13.17
2022-12-27T01:18:39.121Z,10.97
2022-12-27T01:21:08.223Z,11.00
2022-12-27T01:23:37.136Z,12.30
2022-12-27T01:26:07.921Z,11.30
2022-12-27T01:28:36.414Z,10.13
2022-12-27T01:31:06.958Z,9.90
2022-12-27T01:33:35.747Z,9.30
2022-12-27T01:36:09.706Z,9.33
2022-12-27T01:38:38.123Z,9.17
2022-12-27T01:41:21.864Z,9.17
2022-12-27T01:43:50.314Z,9.10
2022-12-27T01:46:19.336Z,9.47
2022-12-27T01:48:47.992Z,8.73
2022-12-27T01:51:16.936Z,9.60
2022-12-27T01:53:47.645Z,9.93
2022-12-27T01:56:19.576Z,8.67
2022-12-27T01:58:49.561Z,7.97
2022-12-27T02:01:19.423Z,7.43
2022-12-27T02:03:48.978Z,7.57
2022-12-27T02:06:18.017Z,6.07
2022-12-27T02:08:50.903Z,6.20
2022-12-27T02:11:44.406Z,5.47
2022-12-27T02:14:13.985Z,5.47
2022-12-27T02:16:42.526Z,5.40
2022-12-27T02:19:14.599Z,4.53
2022-12-27T02:21:52.559Z,3.97
2022-12-27T02:24:50.025Z,5.20
2022-12-27T02:27:25.944Z,5.37
2022-12-27T02:30:04.093Z,5.30
2022-12-27T02:32:35.787Z,7.03
2022-12-27T02:35:09.069Z,7.50
2022-12-27T02:37:40.355Z,8.67
2022-12-27T02:40:29.132Z,7.83
2022-12-27T02:43:15.669Z,8.00
2022-12-27T02:46:05.857Z,8.60
2022-12-27T02:48:52.215Z,8.93
2022-12-27T02:51:45.330Z,8.07
2022-12-27T02:54:25.367Z,9.03
2022-12-27T02:57:10.156Z,8.47
2022-12-27T03:00:04.876Z,8.70
2022-12-27T03:02:55.119Z,9.13
2022-12-27T03:05:27.435Z,8.47
2022-12-27T03:08:00.511Z,8.50
2022-12-27T03:10:50.568Z,8.87
2022-12-27T03:13:39.687Z,9.13
2022-12-27T03:16:11.690Z,8.67
2022-12-27T03:18:46.509Z,8.63
2022-12-27T03:21:33.896Z,7.40
2022-12-27T03:24:20.959Z,7.07
2022-12-27T03:26:50.853Z,6.93
2022-12-27T03:29:39.199Z,7.20
2022-12-27T03:32:27.723Z,7.37
2022-12-27T03:35:01.162Z,7.43
2022-12-27T03:37:48.851Z,8.53
2022-12-27T03:40:19.910Z,9.27
2022-12-27T03:43:09.100Z,8.70
2022-12-27T03:46:09.002Z,8.87
2022-12-27T03:48:41.659Z,8.63
2022-12-27T03:51:11.937Z,9.00
2022-12-27T03:53:41.480Z,9.17
2022-12-27T03:56:10.435Z,9.60
2022-12-27T03:58:38.931Z,9.33
2022-12-27T04:01:07.420Z,9.50
2022-12-27T04:03:36.041Z,10.03
2022-12-27T04:06:04.581Z,9.13
2022-12-27T04:08:51.663Z,8.97
2022-12-27T04:11:37.500Z,9.67
2022-12-27T04:14:23.385Z,9.80
2022-12-27T04:17:09.201Z,9.43
2022-12-27T04:19:55.089Z,9.70
2022-12-27T04:22:41.015Z,9.30
2022-12-27T04:25:28.669Z,8.90
2022-12-27T04:28:14.595Z,9.07
2022-12-27T04:31:00.562Z,8.60
2022-12-27T04:33:46.591Z,9.37
2022-12-27T04:36:15.031Z,9.10
2022-12-27T04:38:43.580Z,8.90
2022-12-27T04:41:31.153Z,9.67
2022-12-27T04:44:17.169Z,9.23
2022-12-27T04:47:03.038Z,8.90
2022-12-27T04:49:48.949Z,8.53
2022-12-27T04:52:35.882Z,8.93
2022-12-27T04:55:09.751Z,9.63
2022-12-27T04:57:39.589Z,9.00
2022-12-27T05:00:26.442Z,10.07
2022-12-27T05:02:55.168Z,10.30
2022-12-27T05:05:23.945Z,8.67
2022-12-27T05:08:10.137Z,9.87
2022-12-27T05:10:52.526Z,9.27
2022-12-27T05:13:39.821Z,9.37
2022-12-27T05:16:08.655Z,10.37
2022-12-27T05:18:37.147Z,9.43
2022-12-27T05:21:06.264Z,9.70
2022-12-27T05:23:53.330Z,9.50
2022-12-27T05:26:22.363Z,9.63
2022-12-27T05:28:52.820Z,8.50
2022-12-27T05:31:21.677Z,8.27
2022-12-27T05:33:50.427Z,6.60
2022-12-27T05:36:19.226Z,5.23
2022-12-27T05:38:48.064Z,4.70
2022-12-27T05:41:16.925Z,4.30
2022-12-27T05:43:45.508Z,4.13
2022-12-27T05:46:16.561Z,4.60
2022-12-27T05:48:45.488Z,4.60
2022-12-27T05:51:14.950Z,4.43
2022-12-27T05:53:43.552Z,4.53
2022-12-27T05:56:13.963Z,4.40
2022-12-27T05:58:42.359Z,4.20
2022-12-27T06:01:11.560Z,4.13
2022-12-27T06:03:41.610Z,3.83
2022-12-27T06:06:10.280Z,4.30
2022-12-27T06:08:39.290Z,3.23
2022-12-27T06:11:09.457Z,3.30
2022-12-27T06:13:38.397Z,2.90
2022-12-27T06:16:07.878Z,3.37
2022-12-27T06:18:36.948Z,3.70
2022-12-27T06:21:08.442Z,3.87
2022-12-27T06:23:37.302Z,3.60
2022-12-27T06:26:06.678Z,3.30
2022-12-27T06:28:35.168Z,3.30
2022-12-27T06:31:04.170Z,3.37
2022-12-27T06:33:32.971Z,3.13
2022-12-27T06:36:01.480Z,3.83
2022-12-27T06:38:31.286Z,3.50
2022-12-27T06:41:02.440Z,3.57
2022-12-27T06:43:30.855Z,3.90
2022-12-27T06:45:59.907Z,4.17
2022-12-27T06:48:28.761Z,4.37
2022-12-27T06:50:57.487Z,4.03
2022-12-27T06:53:25.975Z,4.23
2022-12-27T06:55:55.729Z,4.50
2022-12-27T06:58:24.227Z,4.40
2022-12-27T07:00:52.711Z,4.93
2022-12-27T07:03:21.202Z,4.73
2022-12-27T07:05:49.693Z,5.40
2022-12-27T07:08:18.129Z,5.10
2022-12-27T07:10:46.609Z,5.03
2022-12-27T07:13:16.489Z,4.90
2022-12-27T07:15:44.984Z,4.70
2022-12-27T07:18:13.494Z,4.77
2022-12-27T07:20:43.044Z,5.40
2022-12-27T07:23:19.069Z,19.53
2022-12-27T07:25:47.997Z,10.43
2022-12-27T07:28:17.955Z,5.73
2022-12-27T07:30:46.451Z,5.07
2022-12-27T07:33:14.944Z,4.67
2022-12-27T07:35:45.172Z,5.23
2022-12-27T07:38:13.911Z,5.77
2022-12-27T07:40:42.410Z,5.30
2022-12-27T07:43:10.842Z,5.20
2022-12-27T07:45:40.694Z,5.73
2022-12-27T07:48:09.253Z,5.90
2022-12-27T07:50:37.739Z,6.80
2022-12-27T07:53:06.253Z,7.57
2022-12-27T07:55:34.737Z,8.77
2022-12-27T07:58:03.205Z,9.73
2022-12-27T08:00:31.830Z,10.90
2022-12-27T08:03:03.729Z,10.30
2022-12-27T08:05:32.266Z,9.43
2022-12-27T08:08:02.593Z,9.83
2022-12-27T08:10:31.062Z,10.00
2022-12-27T08:12:59.528Z,10.73
2022-12-27T08:15:28.392Z,12.07
2022-12-27T08:17:56.880Z,11.40
2022-12-27T08:20:27.803Z,11.90
2022-12-27T08:22:56.358Z,11.07
2022-12-27T08:25:24.842Z,10.93
2022-12-27T08:27:53.283Z,11.23
2022-12-27T08:30:21.900Z,11.47
2022-12-27T08:32:50.927Z,12.50
2022-12-27T08:35:50.936Z,14.67
2022-12-27T08:38:09.525Z,13.40
2022-12-27T08:40:41.552Z,14.10
2022-12-27T08:43:10.358Z,10.97
2022-12-27T08:45:39.019Z,9.73
2022-12-27T08:48:08.078Z,10.23
2022-12-27T08:50:36.576Z,10.60
2022-12-27T08:53:05.990Z,10.63
2022-12-27T08:55:35.953Z,9.40
2022-12-27T08:58:09.200Z,7.27
2022-12-27T09:00:42.290Z,6.20
2022-12-27T09:03:10.781Z,5.70
2022-12-27T09:05:41.890Z,5.57
2022-12-27T09:08:10.684Z,6.17
2022-12-27T09:10:40.815Z,6.60
2022-12-27T09:13:09.320Z,6.87
2022-12-27T09:15:38.999Z,9.40
2022-12-27T09:18:08.760Z,7.10
2022-12-27T09:20:37.269Z,7.40
2022-12-27T09:23:05.713Z,7.97
2022-12-27T09:25:34.178Z,8.67
2022-12-27T09:28:04.241Z,7.43
2022-12-27T09:30:32.680Z,7.47
2022-12-27T09:33:01.102Z,8.07
2022-12-27T09:35:30.216Z,8.60
2022-12-27T09:38:00.270Z,7.23
2022-12-27T09:40:28.677Z,8.83
2022-12-27T09:43:19.068Z,8.13
2022-12-27T09:45:53.895Z,6.90
2022-12-27T09:48:32.772Z,6.30
2022-12-27T09:51:03.813Z,6.40
2022-12-27T09:53:35.758Z,6.90
2022-12-27T09:56:04.195Z,6.77
2022-12-27T09:58:42.945Z,7.27
2022-12-27T10:01:19.640Z,7.70
2022-12-27T10:03:48.193Z,7.20
2022-12-27T10:06:22.910Z,7.43
2022-12-27T10:08:56.655Z,8.27
2022-12-27T10:11:41.916Z,7.50
2022-12-27T10:14:25.436Z,7.37
2022-12-27T10:16:59.397Z,7.40
2022-12-27T10:19:31.922Z,6.53
2022-12-27T10:22:05.672Z,6.77
2022-12-27T10:24:37.176Z,6.37
2022-12-27T10:27:10.948Z,7.30
2022-12-27T10:29:39.294Z,6.33
2022-12-27T10:32:10.960Z,5.93
2022-12-27T10:34:39.598Z,6.37
2022-12-27T10:37:08.484Z,6.30
2022-12-27T10:39:38.491Z,7.23
2022-12-27T10:42:11.605Z,6.40
2022-12-27T10:44:40.273Z,6.50
2022-12-27T10:47:10.499Z,6.10
2022-12-27T10:49:39.553Z,7.13
2022-12-27T10:52:09.721Z,6.70
2022-12-27T10:54:50.756Z,7.10
2022-12-27T10:57:25.934Z,7.60
2022-12-27T11:00:10.668Z,7.17
2022-12-27T11:02:50.545Z,8.37
2022-12-27T11:05:22.374Z,7.43
2022-12-27T11:07:50.754Z,7.37
2022-12-27T11:10:20.291Z,8.53
2022-12-27T11:12:59.052Z,7.93
2022-12-27T11:15:28.320Z,8.97
2022-12-27T11:17:59.792Z,8.67
2022-12-27T11:20:29.710Z,9.10
2022-12-27T11:22:59.923Z,9.03
2022-12-27T11:25:29.075Z,9.80
2022-12-27T11:28:00.109Z,9.40
2022-12-27T11:30:30.753Z,10.30
2022-12-27T11:33:02.482Z,9.83
2022-12-27T11:35:31.015Z,9.73
2022-12-27T11:37:59.475Z,10.17
2022-12-27T11:40:30.545Z,10.00
2022-12-27T11:43:03.340Z,11.00
2022-12-27T11:45:35.697Z,11.07
2022-12-27T11:48:08.193Z,10.70
2022-12-27T11:50:42.916Z,12.03
2022-12-27T11:53:16.811Z,10.73
2022-12-27T11:55:54.363Z,11.37
2022-12-27T11:58:43.620Z,11.67
2022-12-27T12:01:23.314Z,12.23
2022-12-27T12:04:03.681Z,11.83
2022-12-27T12:06:37.686Z,12.17
2022-12-27T12:09:20.334Z,12.23
2022-12-27T12:11:57.641Z,11.73
2022-12-27T12:14:36.760Z,12.67
2022-12-27T12:17:22.913Z,11.63
2022-12-27T12:20:09.243Z,12.90
2022-12-27T12:22:49.723Z,12.40
2022-12-27T12:25:29.671Z,13.13
2022-12-27T12:28:38.519Z,11.33
2022-12-27T12:31:05.622Z,13.17
2022-12-27T12:33:51.717Z,11.90
2022-12-27T12:36:30.476Z,12.77
2022-12-27T12:39:02.721Z,13.47
2022-12-27T12:41:47.787Z,11.97
2022-12-27T12:44:30.611Z,14.33
2022-12-27T12:47:02.075Z,13.30
2022-12-27T12:49:38.382Z,12.23
2022-12-27T12:52:26.677Z,14.97
2022-12-27T12:55:12.995Z,14.03
2022-12-27T12:57:45.069Z,13.17
2022-12-27T13:00:24.133Z,12.87
2022-12-27T13:03:13.379Z,14.13
2022-12-27T13:05:47.183Z,13.60
2022-12-27T13:08:21.587Z,12.67
2022-12-27T13:10:58.737Z,13.53
2022-12-27T13:13:30.537Z,13.20
2022-12-27T13:16:07.728Z,13.27
2022-12-27T13:18:40.243Z,11.97
2022-12-27T13:21:12.750Z,13.47
2022-12-27T13:23:47.345Z,13.73
2022-12-27T13:26:21.547Z,12.43
2022-12-27T13:28:54.320Z,14.13
2022-12-27T13:31:28.828Z,14.00
2022-12-27T13:34:02.601Z,13.40
2022-12-27T13:36:35.473Z,14.00
2022-12-27T13:39:14.661Z,13.80
2022-12-27T13:41:48.008Z,13.83
2022-12-27T13:44:38.109Z,13.97
2022-12-27T13:47:15.007Z,12.87
2022-12-27T13:49:50.507Z,13.73
2022-12-27T13:52:25.931Z,13.00
2022-12-27T13:55:07.664Z,13.60
2022-12-27T13:57:46.105Z,13.67
2022-12-27T14:00:18.550Z,13.57
2022-12-27T14:03:03.513Z,14.50
2022-12-27T14:05:53.534Z,14.37
2022-12-27T14:08:27.862Z,14.40
2022-12-27T14:11:01.117Z,14.40
2022-12-27T14:13:33.631Z,15.33
2022-12-27T14:16:12.972Z,14.87
2022-12-27T14:18:48.940Z,15.03
2022-12-27T14:21:23.787Z,15.77
2022-12-27T14:23:58.341Z,14.40
2022-12-27T14:26:45.211Z,15.83
2022-12-27T14:29:31.366Z,16.90
2022-12-27T14:32:18.299Z,17.10
2022-12-27T14:35:19.763Z,16.97
2022-12-27T14:38:06.744Z,15.83
2022-12-27T14:41:05.267Z,15.20
2022-12-27T14:43:57.417Z,15.13
2022-12-27T14:46:38.583Z,16.33
2022-12-27T14:49:23.181Z,15.97
2022-12-27T14:52:17.568Z,16.43
2022-12-27T14:55:15.410Z,15.20
2022-12-27T14:57:48.692Z,15.57
2022-12-27T15:00:18.295Z,15.30
2022-12-27T15:02:56.392Z,14.00
2022-12-27T15:05:34.724Z,14.87
2022-12-27T15:08:17.430Z,16.13
2022-12-27T15:10:54.872Z,15.13
2022-12-27T15:13:26.729Z,15.13
2022-12-27T15:16:01.172Z,16.77
2022-12-27T15:18:39.914Z,15.00
2022-12-27T15:21:22.276Z,15.53
2022-12-27T15:23:54.507Z,15.63
2022-12-27T15:26:25.831Z,14.90
2022-12-27T15:29:04.023Z,17.47
2022-12-27T15:31:38.299Z,17.83
2022-12-27T15:34:13.125Z,18.00
2022-12-27T15:36:42.750Z,23.33
2022-12-27T15:39:26.100Z,24.33
2022-12-27T15:41:59.063Z,23.93
2022-12-27T15:44:37.279Z,26.40
2022-12-27T15:47:28.606Z,30.27
2022-12-27T15:50:12.820Z,38.53
2022-12-27T15:52:56.535Z,30.23
2022-12-27T15:55:29.713Z,30.33
2022-12-27T15:58:06.241Z,35.77
2022-12-27T16:00:35.087Z,34.33
2022-12-27T16:03:04.476Z,38.23
2022-12-27T16:05:52.390Z,27.13
2022-12-27T16:08:29.390Z,23.00
2022-12-27T16:10:58.523Z,24.23
2022-12-27T16:13:41.145Z,26.47
2022-12-27T16:16:34.334Z,24.50
2022-12-27T16:19:13.818Z,22.70
2022-12-27T16:21:45.330Z,26.83
2022-12-27T16:24:16.297Z,25.93
2022-12-27T16:26:56.515Z,24.87
2022-12-27T16:29:28.049Z,25.63
2022-12-27T16:32:14.489Z,26.40
2022-12-27T16:34:44.178Z,25.40
2022-12-27T16:37:23.998Z,25.37
2022-12-27T16:40:10.192Z,24.73
2022-12-27T16:43:02.823Z,25.67
2022-12-27T16:45:36.639Z,25.23
2022-12-27T16:48:12.191Z,26.13
2022-12-27T16:50:55.989Z,24.60
2022-12-27T16:53:33.925Z,27.00
2022-12-27T16:56:16.784Z,27.57
2022-12-27T16:58:45.321Z,25.50
2022-12-27T17:01:46.815Z,27.13
2022-12-27T17:04:30.166Z,26.70
2022-12-27T17:06:58.872Z,25.97
2022-12-27T17:09:47.047Z,25.87
2022-12-27T17:12:25.350Z,25.73
2022-12-27T17:14:56.155Z,24.30
2022-12-27T17:17:25.629Z,24.83
2022-12-27T17:19:57.868Z,25.97
2022-12-27T17:22:33.920Z,31.90
2022-12-27T17:25:04.278Z,32.63
2022-12-27T17:27:39.736Z,30.50
2022-12-27T17:30:13.729Z,30.33
2022-12-27T17:32:51.461Z,25.87
2022-12-27T17:35:28.534Z,28.07
2022-12-27T17:38:10.451Z,28.63
2022-12-27T17:40:43.703Z,27.93
2022-12-27T17:43:33.522Z,28.13
2022-12-27T17:46:14.754Z,29.27
2022-12-27T17:48:43.817Z,28.93
2022-12-27T17:51:13.459Z,39.10
2022-12-27T17:54:04.731Z,42.33
2022-12-27T17:57:00.211Z,27.80
2022-12-27T17:59:29.760Z,26.73
2022-12-27T18:02:00.089Z,27.70
2022-12-27T18:04:30.586Z,25.03
2022-12-27T18:07:01.865Z,26.17
2022-12-27T18:09:35.374Z,25.33
2022-12-27T18:12:06.084Z,24.63
2022-12-27T18:14:35.565Z,25.53
2022-12-27T18:17:04.051Z,24.67
2022-12-27T18:19:33.325Z,24.67
2022-12-27T18:22:02.480Z,25.37
2022-12-27T18:24:32.255Z,26.70
2022-12-27T18:27:06.759Z,24.70
2022-12-27T18:29:35.560Z,24.03
2022-12-27T18:32:07.996Z,24.70
2022-12-27T18:34:39.008Z,25.00
2022-12-27T18:37:08.671Z,27.43
2022-12-27T18:39:38.614Z,25.33
2022-12-27T18:42:16.679Z,23.07
2022-12-27T18:44:47.065Z,23.47
2022-12-27T18:47:19.750Z,23.97
2022-12-27T18:49:48.222Z,23.20
2022-12-27T18:52:22.746Z,24.17
2022-12-27T18:54:51.191Z,22.20
2022-12-27T18:57:33.403Z,22.97
2022-12-27T19:00:03.153Z,25.13
2022-12-27T19:02:34.653Z,22.57
2022-12-27T19:05:30.331Z,20.27
2022-12-27T19:08:04.059Z,20.27
2022-12-27T19:10:33.573Z,21.37
2022-12-27T19:13:04.061Z,21.00
2022-12-27T19:15:39.036Z,19.07
2022-12-27T19:18:08.362Z,24.27
2022-12-27T19:20:37.784Z,22.33
2022-12-27T19:23:07.782Z,24.40
2022-12-27T19:25:37.347Z,24.30
2022-12-27T19:28:08.247Z,23.37
2022-12-27T19:30:38.865Z,23.97
2022-12-27T19:33:10.667Z,23.30
2022-12-27T19:35:39.057Z,24.10
2022-12-27T19:38:07.479Z,25.70
2022-12-27T19:40:36.021Z,29.10
2022-12-27T19:43:04.523Z,30.80
2022-12-27T19:45:34.378Z,34.40
2022-12-27T19:48:02.811Z,32.97
2022-12-27T19:50:31.230Z,34.97
2022-12-27T19:53:00.182Z,33.13
2022-12-27T19:55:29.425Z,33.50
2022-12-27T19:57:58.255Z,31.57
2022-12-27T20:00:26.788Z,32.00
2022-12-27T20:02:56.701Z,32.27
2022-12-27T20:06:11.458Z,30.43
2022-12-27T20:08:21.755Z,31.00
2022-12-27T20:10:50.303Z,31.87
2022-12-27T20:13:19.283Z,31.33
2022-12-27T20:15:47.687Z,30.30
2022-12-27T20:18:17.565Z,29.97
2022-12-27T20:20:46.137Z,30.33
2022-12-27T20:23:14.710Z,29.83
2022-12-27T20:25:44.490Z,30.20
2022-12-27T20:28:13.116Z,29.27
2022-12-27T20:30:42.042Z,29.13
2022-12-27T20:33:11.040Z,29.10
2022-12-27T20:35:40.920Z,29.33
2022-12-27T20:38:10.502Z,28.50
2022-12-27T20:40:40.509Z,27.60
2022-12-27T20:43:09.236Z,24.63
2022-12-27T20:45:37.792Z,27.80
2022-12-27T20:48:06.719Z,27.43
2022-12-27T20:50:35.237Z,28.10
2022-12-27T20:53:05.472Z,25.57
2022-12-27T20:55:34.358Z,25.20
2022-12-27T20:58:03.029Z,30.00
2022-12-27T21:00:31.701Z,29.53
2022-12-27T21:03:00.294Z,26.27
2022-12-27T21:05:28.859Z,25.10
2022-12-27T21:07:57.282Z,26.47
2022-12-27T21:10:27.077Z,26.73
2022-12-27T21:12:55.654Z,26.13
2022-12-27T21:15:24.156Z,29.60
2022-12-27T21:17:52.662Z,26.53
2022-12-27T21:20:21.176Z,26.93
2022-12-27T21:22:49.807Z,29.53
2022-12-27T21:25:18.367Z,35.83
2022-12-27T21:27:48.913Z,34.27
2022-12-27T21:30:17.427Z,27.97
2022-12-27T21:32:45.927Z,36.73
2022-12-27T21:35:14.316Z,27.80
2022-12-27T21:37:42.677Z,26.00
2022-12-27T21:40:11.834Z,25.30
2022-12-27T21:42:40.303Z,23.57
2022-12-27T21:45:10.639Z,23.37
2022-12-27T21:47:39.205Z,22.67
2022-12-27T21:50:08.129Z,23.47
2022-12-27T21:52:36.601Z,22.87
2022-12-27T21:55:05.287Z,23.83
2022-12-27T21:57:33.739Z,24.80
2022-12-27T22:00:02.195Z,23.80
2022-12-27T22:02:32.045Z,24.43
2022-12-27T22:05:02.154Z,24.33
2022-12-27T22:07:30.562Z,24.53
2022-12-27T22:09:58.981Z,24.93
2022-12-27T22:12:27.471Z,23.73
2022-12-27T22:14:55.921Z,23.77
2022-12-27T22:17:24.506Z,23.03
2022-12-27T22:19:52.992Z,24.90
2022-12-27T22:22:22.824Z,23.63
2022-12-27T22:24:51.375Z,23.57
2022-12-27T22:27:19.860Z,22.63
2022-12-27T22:29:48.262Z,23.47
2022-12-27T22:32:16.774Z,22.50
2022-12-27T22:34:45.212Z,22.20
2022-12-27T22:37:13.673Z,22.70
2022-12-27T22:39:43.495Z,21.03
2022-12-27T22:42:12.011Z,22.17
2022-12-27T22:44:41.276Z,20.33
2022-12-27T22:47:26.708Z,21.97
2022-12-27T22:49:55.976Z,20.27
2022-12-27T22:52:24.402Z,20.90
2022-12-27T22:55:04.871Z,20.83
2022-12-27T22:57:35.110Z,20.23
2022-12-27T23:00:04.560Z,19.60
2022-12-27T23:02:33.162Z,19.27
2022-12-27T23:05:01.706Z,20.37
2022-12-27T23:08:06.237Z,19.67
2022-12-27T23:10:20.323Z,21.40
2022-12-27T23:12:48.877Z,19.27
2022-12-27T23:15:17.359Z,20.50
2022-12-27T23:17:45.907Z,21.87
2022-12-27T23:20:14.389Z,18.83
2022-12-27T23:22:42.813Z,20.10
2022-12-27T23:25:11.399Z,20.57
2022-12-27T23:27:41.223Z,20.90
2022-12-27T23:30:10.184Z,24.40
2022-12-27T23:32:38.675Z,23.40
2022-12-27T23:35:07.449Z,22.07
2022-12-27T23:37:35.926Z,21.63
2022-12-27T23:40:04.369Z,19.30
2022-12-27T23:42:32.847Z,20.70
2022-12-27T23:45:02.695Z,20.90
2022-12-27T23:47:31.161Z,22.13
2022-12-27T23:49:59.628Z,21.30
2022-12-27T23:52:28.038Z,20.87
2022-12-27T23:54:56.465Z,20.60
2022-12-27T23:57:24.890Z,21.27
2022-12-27T23:59:55.424Z,21.63
